Alts de Monte Brisas, Puerto Rico
Current Conditions -  °F | °C
As of 7:53 PM on Saturday 20 Dec 2014 (Local Time) from TJNR Reporting Station
Overcast Overcast  
Wind Chill: 75°   Ceiling: 4300
Heat Index: 75°   Visibility: 10mi
Dew Point: 73°   Wind: 0mph
Humidity: 94%   Direction: NA
Pressure: 30.06"   Gusts: NA
Location:  18.3304°N, 65.6573°W
Report Text: TJNR 202353Z AUTO 00000KT 10SM SCT026 BKN043 OVC060 24/23 A3006 RMK AO2 RAE2254B23E33 SLP180 P0000 60023 T02390228 10289 20239 53016 $
Loading
Personal Weather Stations






























Interactive Weather Map New forecast layout! Learn more

10-Day Weather Forecast

Advertisements
Track Severe Weather on mobile